sensor_id;sensor_type;location;lat;lon;timestamp;P1;durP1;ratioP1;P2;durP2;ratioP2
17259;SDS011;8746;49.230;9.220;2023-04-19T00:00:08;12.17;;;9.80;;
17259;SDS011;8746;49.230;9.220;2023-04-19T00:02:34;12.83;;;9.63;;
17259;SDS011;8746;49.230;9.220;2023-04-19T00:05:00;12.00;;;9.87;;
17259;SDS011;8746;49.230;9.220;2023-04-19T00:07:25;13.07;;;9.67;;
17259;SDS011;8746;49.230;9.220;2023-04-19T00:09:51;12.30;;;9.57;;
17259;SDS011;8746;49.230;9.220;2023-04-19T00:12:16;12.53;;;9.40;;
17259;SDS011;8746;49.230;9.220;2023-04-19T00:14:42;11.67;;;9.97;;
17259;SDS011;8746;49.230;9.220;2023-04-19T00:17:07;11.77;;;9.73;;
17259;SDS011;8746;49.230;9.220;2023-04-19T00:19:32;13.80;;;9.87;;
17259;SDS011;8746;49.230;9.220;2023-04-19T00:21:58;12.17;;;9.57;;
17259;SDS011;8746;49.230;9.220;2023-04-19T00:24:23;13.37;;;9.87;;
17259;SDS011;8746;49.230;9.220;2023-04-19T00:26:48;12.90;;;9.90;;
17259;SDS011;8746;49.230;9.220;2023-04-19T00:29:14;14.40;;;9.73;;
17259;SDS011;8746;49.230;9.220;2023-04-19T00:31:39;13.13;;;9.80;;
17259;SDS011;8746;49.230;9.220;2023-04-19T00:34:04;9.53;;;8.53;;
17259;SDS011;8746;49.230;9.220;2023-04-19T00:36:30;11.50;;;9.27;;
17259;SDS011;8746;49.230;9.220;2023-04-19T00:38:56;10.23;;;9.13;;
17259;SDS011;8746;49.230;9.220;2023-04-19T00:41:21;11.50;;;9.73;;
17259;SDS011;8746;49.230;9.220;2023-04-19T00:43:46;12.33;;;9.30;;
17259;SDS011;8746;49.230;9.220;2023-04-19T00:46:12;10.83;;;9.13;;
17259;SDS011;8746;49.230;9.220;2023-04-19T00:48:39;12.63;;;9.50;;
17259;SDS011;8746;49.230;9.220;2023-04-19T00:51:04;10.77;;;9.13;;
17259;SDS011;8746;49.230;9.220;2023-04-19T00:53:30;11.73;;;9.27;;
17259;SDS011;8746;49.230;9.220;2023-04-19T00:55:55;12.10;;;9.33;;
17259;SDS011;8746;49.230;9.220;2023-04-19T00:58:24;12.53;;;9.33;;
17259;SDS011;8746;49.230;9.220;2023-04-19T01:00:52;11.57;;;9.30;;
17259;SDS011;8746;49.230;9.220;2023-04-19T01:03:17;11.47;;;8.87;;
17259;SDS011;8746;49.230;9.220;2023-04-19T01:05:44;12.53;;;9.63;;
17259;SDS011;8746;49.230;9.220;2023-04-19T01:08:09;11.77;;;8.87;;
17259;SDS011;8746;49.230;9.220;2023-04-19T01:10:34;10.40;;;8.47;;
17259;SDS011;8746;49.230;9.220;2023-04-19T01:13:00;10.80;;;9.07;;
17259;SDS011;8746;49.230;9.220;2023-04-19T01:15:25;10.80;;;8.90;;
17259;SDS011;8746;49.230;9.220;2023-04-19T01:17:50;11.57;;;8.37;;
17259;SDS011;8746;49.230;9.220;2023-04-19T01:20:16;11.10;;;8.43;;
17259;SDS011;8746;49.230;9.220;2023-04-19T01:22:41;9.37;;;8.27;;
17259;SDS011;8746;49.230;9.220;2023-04-19T01:25:07;12.03;;;8.90;;
17259;SDS011;8746;49.230;9.220;2023-04-19T01:27:32;10.93;;;9.07;;
17259;SDS011;8746;49.230;9.220;2023-04-19T01:29:58;10.00;;;8.53;;
17259;SDS011;8746;49.230;9.220;2023-04-19T01:32:23;10.47;;;8.60;;
17259;SDS011;8746;49.230;9.220;2023-04-19T01:34:50;11.27;;;8.40;;
17259;SDS011;8746;49.230;9.220;2023-04-19T01:37:16;9.90;;;8.60;;
17259;SDS011;8746;49.230;9.220;2023-04-19T01:39:42;11.47;;;8.47;;
17259;SDS011;8746;49.230;9.220;2023-04-19T01:42:07;10.47;;;8.50;;
17259;SDS011;8746;49.230;9.220;2023-04-19T01:44:32;9.87;;;8.30;;
17259;SDS011;8746;49.230;9.220;2023-04-19T01:46:58;9.60;;;8.47;;
17259;SDS011;8746;49.230;9.220;2023-04-19T01:49:23;11.30;;;7.90;;
17259;SDS011;8746;49.230;9.220;2023-04-19T01:51:48;9.97;;;7.87;;
17259;SDS011;8746;49.230;9.220;2023-04-19T01:54:14;10.40;;;7.87;;
17259;SDS011;8746;49.230;9.220;2023-04-19T01:56:39;10.40;;;8.27;;
17259;SDS011;8746;49.230;9.220;2023-04-19T01:59:05;9.63;;;8.27;;
17259;SDS011;8746;49.230;9.220;2023-04-19T02:01:30;9.23;;;7.90;;
17259;SDS011;8746;49.230;9.220;2023-04-19T02:03:56;9.47;;;7.43;;
17259;SDS011;8746;49.230;9.220;2023-04-19T02:06:21;9.27;;;7.50;;
17259;SDS011;8746;49.230;9.220;2023-04-19T02:08:46;11.73;;;8.37;;
17259;SDS011;8746;49.230;9.220;2023-04-19T02:11:12;8.20;;;7.13;;
17259;SDS011;8746;49.230;9.220;2023-04-19T02:13:41;9.67;;;7.90;;
17259;SDS011;8746;49.230;9.220;2023-04-19T02:16:07;9.10;;;8.10;;
17259;SDS011;8746;49.230;9.220;2023-04-19T02:18:33;9.37;;;7.53;;
17259;SDS011;8746;49.230;9.220;2023-04-19T02:21:05;9.47;;;7.73;;
17259;SDS011;8746;49.230;9.220;2023-04-19T02:23:32;8.93;;;7.43;;
17259;SDS011;8746;49.230;9.220;2023-04-19T02:25:59;9.20;;;7.77;;
17259;SDS011;8746;49.230;9.220;2023-04-19T02:28:27;9.10;;;7.50;;
17259;SDS011;8746;49.230;9.220;2023-04-19T02:30:53;8.10;;;7.03;;
17259;SDS011;8746;49.230;9.220;2023-04-19T02:33:18;9.17;;;7.20;;
17259;SDS011;8746;49.230;9.220;2023-04-19T02:35:43;8.20;;;7.40;;
17259;SDS011;8746;49.230;9.220;2023-04-19T02:38:09;8.80;;;7.80;;
17259;SDS011;8746;49.230;9.220;2023-04-19T02:40:34;10.70;;;8.40;;
17259;SDS011;8746;49.230;9.220;2023-04-19T02:42:59;8.37;;;7.30;;
17259;SDS011;8746;49.230;9.220;2023-04-19T02:45:25;9.23;;;7.43;;
17259;SDS011;8746;49.230;9.220;2023-04-19T02:47:50;8.63;;;7.13;;
17259;SDS011;8746;49.230;9.220;2023-04-19T02:50:16;9.13;;;7.60;;
17259;SDS011;8746;49.230;9.220;2023-04-19T02:52:41;8.73;;;6.87;;
17259;SDS011;8746;49.230;9.220;2023-04-19T02:55:07;9.97;;;7.50;;
17259;SDS011;8746;49.230;9.220;2023-04-19T02:57:32;8.33;;;7.27;;
17259;SDS011;8746;49.230;9.220;2023-04-19T02:59:58;8.80;;;7.17;;
17259;SDS011;8746;49.230;9.220;2023-04-19T03:02:23;10.10;;;8.00;;
17259;SDS011;8746;49.230;9.220;2023-04-19T03:04:49;8.87;;;7.63;;
17259;SDS011;8746;49.230;9.220;2023-04-19T03:07:15;9.57;;;7.60;;
17259;SDS011;8746;49.230;9.220;2023-04-19T03:09:41;10.47;;;7.80;;
17259;SDS011;8746;49.230;9.220;2023-04-19T03:12:06;9.67;;;7.67;;
17259;SDS011;8746;49.230;9.220;2023-04-19T03:14:32;8.67;;;7.37;;
17259;SDS011;8746;49.230;9.220;2023-04-19T03:16:58;9.47;;;7.60;;
17259;SDS011;8746;49.230;9.220;2023-04-19T03:19:23;9.70;;;7.97;;
17259;SDS011;8746;49.230;9.220;2023-04-19T03:21:48;10.90;;;8.07;;
17259;SDS011;8746;49.230;9.220;2023-04-19T03:24:14;9.47;;;7.63;;
17259;SDS011;8746;49.230;9.220;2023-04-19T03:26:39;9.70;;;7.67;;
17259;SDS011;8746;49.230;9.220;2023-04-19T03:29:05;9.87;;;7.83;;
17259;SDS011;8746;49.230;9.220;2023-04-19T03:31:30;10.10;;;7.93;;
17259;SDS011;8746;49.230;9.220;2023-04-19T03:33:56;9.67;;;8.23;;
17259;SDS011;8746;49.230;9.220;2023-04-19T03:36:21;9.23;;;8.23;;
17259;SDS011;8746;49.230;9.220;2023-04-19T03:38:46;12.67;;;8.23;;
17259;SDS011;8746;49.230;9.220;2023-04-19T03:41:25;8.83;;;7.40;;
17259;SDS011;8746;49.230;9.220;2023-04-19T03:43:51;9.10;;;7.97;;
17259;SDS011;8746;49.230;9.220;2023-04-19T03:46:16;10.37;;;8.63;;
17259;SDS011;8746;49.230;9.220;2023-04-19T03:48:41;10.13;;;8.37;;
17259;SDS011;8746;49.230;9.220;2023-04-19T03:51:07;10.67;;;8.47;;
17259;SDS011;8746;49.230;9.220;2023-04-19T03:53:33;10.90;;;8.30;;
17259;SDS011;8746;49.230;9.220;2023-04-19T03:55:59;9.80;;;7.90;;
17259;SDS011;8746;49.230;9.220;2023-04-19T03:58:24;9.80;;;8.03;;
17259;SDS011;8746;49.230;9.220;2023-04-19T04:00:50;8.73;;;7.43;;
17259;SDS011;8746;49.230;9.220;2023-04-19T04:03:16;9.80;;;7.73;;
17259;SDS011;8746;49.230;9.220;2023-04-19T04:05:41;10.20;;;8.40;;
17259;SDS011;8746;49.230;9.220;2023-04-19T04:08:06;9.07;;;8.03;;
17259;SDS011;8746;49.230;9.220;2023-04-19T04:10:32;10.13;;;7.80;;
17259;SDS011;8746;49.230;9.220;2023-04-19T04:12:57;10.07;;;8.37;;
17259;SDS011;8746;49.230;9.220;2023-04-19T04:15:22;9.37;;;8.00;;
17259;SDS011;8746;49.230;9.220;2023-04-19T04:17:49;11.33;;;8.10;;
17259;SDS011;8746;49.230;9.220;2023-04-19T04:20:14;9.13;;;7.60;;
17259;SDS011;8746;49.230;9.220;2023-04-19T04:22:43;9.03;;;7.60;;
17259;SDS011;8746;49.230;9.220;2023-04-19T04:25:12;10.83;;;8.13;;
17259;SDS011;8746;49.230;9.220;2023-04-19T04:27:39;8.90;;;7.80;;
17259;SDS011;8746;49.230;9.220;2023-04-19T04:30:06;10.33;;;7.77;;
17259;SDS011;8746;49.230;9.220;2023-04-19T04:32:33;10.07;;;7.90;;
17259;SDS011;8746;49.230;9.220;2023-04-19T04:34:59;10.30;;;7.63;;
17259;SDS011;8746;49.230;9.220;2023-04-19T04:37:31;11.23;;;7.87;;
17259;SDS011;8746;49.230;9.220;2023-04-19T04:39:58;10.80;;;7.90;;
17259;SDS011;8746;49.230;9.220;2023-04-19T04:42:24;8.93;;;7.70;;
17259;SDS011;8746;49.230;9.220;2023-04-19T04:44:49;10.30;;;8.03;;
17259;SDS011;8746;49.230;9.220;2023-04-19T04:47:15;10.63;;;8.50;;
17259;SDS011;8746;49.230;9.220;2023-04-19T04:49:41;10.23;;;7.73;;
17259;SDS011;8746;49.230;9.220;2023-04-19T04:52:06;10.57;;;8.27;;
17259;SDS011;8746;49.230;9.220;2023-04-19T04:54:32;8.57;;;7.63;;
17259;SDS011;8746;49.230;9.220;2023-04-19T04:56:58;10.23;;;8.20;;
17259;SDS011;8746;49.230;9.220;2023-04-19T04:59:23;9.57;;;7.97;;
17259;SDS011;8746;49.230;9.220;2023-04-19T05:01:49;9.40;;;7.70;;
17259;SDS011;8746;49.230;9.220;2023-04-19T05:04:14;11.70;;;8.20;;
17259;SDS011;8746;49.230;9.220;2023-04-19T05:06:39;8.90;;;7.53;;
17259;SDS011;8746;49.230;9.220;2023-04-19T05:09:05;9.33;;;7.73;;
17259;SDS011;8746;49.230;9.220;2023-04-19T05:11:32;10.03;;;7.73;;
17259;SDS011;8746;49.230;9.220;2023-04-19T05:13:57;8.57;;;7.67;;
17259;SDS011;8746;49.230;9.220;2023-04-19T05:16:23;10.23;;;7.40;;
17259;SDS011;8746;49.230;9.220;2023-04-19T05:18:49;9.33;;;7.23;;
17259;SDS011;8746;49.230;9.220;2023-04-19T05:21:14;8.60;;;7.67;;
17259;SDS011;8746;49.230;9.220;2023-04-19T05:23:40;9.07;;;7.60;;
17259;SDS011;8746;49.230;9.220;2023-04-19T05:26:05;8.67;;;7.70;;
17259;SDS011;8746;49.230;9.220;2023-04-19T05:28:30;9.03;;;7.50;;
17259;SDS011;8746;49.230;9.220;2023-04-19T05:30:56;9.87;;;7.37;;
17259;SDS011;8746;49.230;9.220;2023-04-19T05:33:21;10.20;;;7.67;;
17259;SDS011;8746;49.230;9.220;2023-04-19T05:35:47;7.90;;;6.90;;
17259;SDS011;8746;49.230;9.220;2023-04-19T05:38:12;7.97;;;7.13;;
17259;SDS011;8746;49.230;9.220;2023-04-19T05:40:37;9.40;;;7.63;;
17259;SDS011;8746;49.230;9.220;2023-04-19T05:43:04;8.07;;;7.07;;
17259;SDS011;8746;49.230;9.220;2023-04-19T05:45:29;9.17;;;7.83;;
17259;SDS011;8746;49.230;9.220;2023-04-19T05:47:54;11.00;;;7.80;;
17259;SDS011;8746;49.230;9.220;2023-04-19T05:50:20;9.43;;;7.70;;
17259;SDS011;8746;49.230;9.220;2023-04-19T05:52:45;8.60;;;7.60;;
17259;SDS011;8746;49.230;9.220;2023-04-19T05:55:11;8.97;;;7.27;;
17259;SDS011;8746;49.230;9.220;2023-04-19T05:57:36;10.03;;;7.23;;
17259;SDS011;8746;49.230;9.220;2023-04-19T06:00:02;10.83;;;7.13;;
17259;SDS011;8746;49.230;9.220;2023-04-19T06:02:29;8.73;;;7.30;;
17259;SDS011;8746;49.230;9.220;2023-04-19T06:04:54;9.20;;;7.67;;
17259;SDS011;8746;49.230;9.220;2023-04-19T06:07:21;9.23;;;7.63;;
17259;SDS011;8746;49.230;9.220;2023-04-19T06:09:47;10.87;;;7.40;;
17259;SDS011;8746;49.230;9.220;2023-04-19T06:12:12;9.60;;;7.60;;
17259;SDS011;8746;49.230;9.220;2023-04-19T06:14:38;8.93;;;7.53;;
17259;SDS011;8746;49.230;9.220;2023-04-19T06:17:03;7.97;;;7.17;;
17259;SDS011;8746;49.230;9.220;2023-04-19T06:19:28;9.23;;;7.83;;
17259;SDS011;8746;49.230;9.220;2023-04-19T06:21:54;13.40;;;7.90;;
17259;SDS011;8746;49.230;9.220;2023-04-19T06:24:19;10.03;;;7.77;;
17259;SDS011;8746;49.230;9.220;2023-04-19T06:26:45;9.70;;;8.03;;
17259;SDS011;8746;49.230;9.220;2023-04-19T06:29:11;9.33;;;7.90;;
17259;SDS011;8746;49.230;9.220;2023-04-19T06:31:36;10.97;;;7.83;;
17259;SDS011;8746;49.230;9.220;2023-04-19T06:34:02;7.87;;;7.07;;
17259;SDS011;8746;49.230;9.220;2023-04-19T06:36:27;12.57;;;8.43;;
17259;SDS011;8746;49.230;9.220;2023-04-19T06:38:53;9.53;;;7.70;;
17259;SDS011;8746;49.230;9.220;2023-04-19T06:41:18;9.07;;;7.60;;
17259;SDS011;8746;49.230;9.220;2023-04-19T06:43:43;8.97;;;7.63;;
17259;SDS011;8746;49.230;9.220;2023-04-19T06:46:09;9.40;;;8.27;;
17259;SDS011;8746;49.230;9.220;2023-04-19T06:48:35;9.47;;;8.33;;
17259;SDS011;8746;49.230;9.220;2023-04-19T06:51:00;9.00;;;7.70;;
17259;SDS011;8746;49.230;9.220;2023-04-19T06:53:26;9.60;;;7.73;;
17259;SDS011;8746;49.230;9.220;2023-04-19T06:55:58;10.17;;;8.40;;
17259;SDS011;8746;49.230;9.220;2023-04-19T06:58:26;9.10;;;8.10;;
17259;SDS011;8746;49.230;9.220;2023-04-19T07:00:52;10.57;;;8.23;;
17259;SDS011;8746;49.230;9.220;2023-04-19T07:03:18;9.23;;;7.60;;
17259;SDS011;8746;49.230;9.220;2023-04-19T07:05:43;8.93;;;7.93;;
17259;SDS011;8746;49.230;9.220;2023-04-19T07:08:08;8.73;;;7.83;;
17259;SDS011;8746;49.230;9.220;2023-04-19T07:10:34;9.17;;;8.17;;
17259;SDS011;8746;49.230;9.220;2023-04-19T07:12:59;9.80;;;7.97;;
17259;SDS011;8746;49.230;9.220;2023-04-19T07:15:24;10.70;;;8.57;;
17259;SDS011;8746;49.230;9.220;2023-04-19T07:17:50;9.33;;;8.30;;
17259;SDS011;8746;49.230;9.220;2023-04-19T07:20:15;10.77;;;9.33;;
17259;SDS011;8746;49.230;9.220;2023-04-19T07:22:40;10.77;;;9.53;;
17259;SDS011;8746;49.230;9.220;2023-04-19T07:25:06;10.40;;;8.87;;
17259;SDS011;8746;49.230;9.220;2023-04-19T07:27:31;10.67;;;8.83;;
17259;SDS011;8746;49.230;9.220;2023-04-19T07:29:57;13.50;;;9.37;;
17259;SDS011;8746;49.230;9.220;2023-04-19T07:32:22;10.60;;;8.60;;
17259;SDS011;8746;49.230;9.220;2023-04-19T07:34:47;8.87;;;7.97;;
17259;SDS011;8746;49.230;9.220;2023-04-19T07:37:13;9.53;;;8.40;;
17259;SDS011;8746;49.230;9.220;2023-04-19T07:39:38;8.70;;;7.80;;
17259;SDS011;8746;49.230;9.220;2023-04-19T07:42:04;9.53;;;7.97;;
17259;SDS011;8746;49.230;9.220;2023-04-19T07:44:29;9.53;;;7.47;;
17259;SDS011;8746;49.230;9.220;2023-04-19T07:46:55;9.77;;;8.03;;
17259;SDS011;8746;49.230;9.220;2023-04-19T07:49:20;9.47;;;7.33;;
17259;SDS011;8746;49.230;9.220;2023-04-19T07:51:45;9.13;;;7.40;;
17259;SDS011;8746;49.230;9.220;2023-04-19T07:54:11;8.33;;;7.27;;
17259;SDS011;8746;49.230;9.220;2023-04-19T07:56:36;8.23;;;7.17;;
17259;SDS011;8746;49.230;9.220;2023-04-19T07:59:02;8.27;;;7.47;;
17259;SDS011;8746;49.230;9.220;2023-04-19T08:01:28;8.20;;;7.40;;
17259;SDS011;8746;49.230;9.220;2023-04-19T08:03:53;9.00;;;7.10;;
17259;SDS011;8746;49.230;9.220;2023-04-19T08:06:19;9.13;;;7.70;;
17259;SDS011;8746;49.230;9.220;2023-04-19T08:08:45;9.60;;;7.80;;
17259;SDS011;8746;49.230;9.220;2023-04-19T08:11:11;9.83;;;8.27;;
17259;SDS011;8746;49.230;9.220;2023-04-19T08:13:36;8.53;;;7.67;;
17259;SDS011;8746;49.230;9.220;2023-04-19T08:16:01;8.27;;;7.40;;
17259;SDS011;8746;49.230;9.220;2023-04-19T08:18:27;8.93;;;8.07;;
17259;SDS011;8746;49.230;9.220;2023-04-19T08:20:53;9.67;;;7.97;;
17259;SDS011;8746;49.230;9.220;2023-04-19T08:23:19;10.47;;;7.10;;
17259;SDS011;8746;49.230;9.220;2023-04-19T08:25:45;9.63;;;7.67;;
17259;SDS011;8746;49.230;9.220;2023-04-19T08:28:10;8.10;;;7.30;;
17259;SDS011;8746;49.230;9.220;2023-04-19T08:30:36;9.17;;;7.90;;
17259;SDS011;8746;49.230;9.220;2023-04-19T08:33:01;14.37;;;9.40;;
17259;SDS011;8746;49.230;9.220;2023-04-19T08:35:27;9.10;;;7.30;;
17259;SDS011;8746;49.230;9.220;2023-04-19T08:37:54;8.53;;;7.20;;
17259;SDS011;8746;49.230;9.220;2023-04-19T08:40:19;8.27;;;7.43;;
17259;SDS011;8746;49.230;9.220;2023-04-19T08:42:44;9.83;;;7.80;;
17259;SDS011;8746;49.230;9.220;2023-04-19T08:45:10;8.30;;;7.30;;
17259;SDS011;8746;49.230;9.220;2023-04-19T08:47:37;7.90;;;7.03;;
17259;SDS011;8746;49.230;9.220;2023-04-19T08:50:04;9.10;;;7.77;;
17259;SDS011;8746;49.230;9.220;2023-04-19T08:52:32;9.30;;;8.30;;
17259;SDS011;8746;49.230;9.220;2023-04-19T08:55:05;8.20;;;7.40;;
17259;SDS011;8746;49.230;9.220;2023-04-19T08:57:32;8.10;;;7.30;;
17259;SDS011;8746;49.230;9.220;2023-04-19T08:59:58;9.07;;;7.37;;
17259;SDS011;8746;49.230;9.220;2023-04-19T09:02:24;9.00;;;7.83;;
17259;SDS011;8746;49.230;9.220;2023-04-19T09:04:49;8.33;;;7.50;;
17259;SDS011;8746;49.230;9.220;2023-04-19T09:07:24;8.77;;;7.37;;
17259;SDS011;8746;49.230;9.220;2023-04-19T09:10:03;7.87;;;7.07;;
17259;SDS011;8746;49.230;9.220;2023-04-19T09:12:36;8.50;;;7.70;;
17259;SDS011;8746;49.230;9.220;2023-04-19T09:15:03;8.30;;;7.37;;
17259;SDS011;8746;49.230;9.220;2023-04-19T09:17:30;8.60;;;7.60;;
17259;SDS011;8746;49.230;9.220;2023-04-19T09:19:57;9.03;;;8.13;;
17259;SDS011;8746;49.230;9.220;2023-04-19T09:22:23;9.43;;;7.70;;
17259;SDS011;8746;49.230;9.220;2023-04-19T09:24:49;8.43;;;7.53;;
17259;SDS011;8746;49.230;9.220;2023-04-19T09:27:16;8.43;;;7.60;;
17259;SDS011;8746;49.230;9.220;2023-04-19T09:29:56;8.07;;;7.27;;
17259;SDS011;8746;49.230;9.220;2023-04-19T09:32:23;8.20;;;7.40;;
17259;SDS011;8746;49.230;9.220;2023-04-19T09:34:49;7.73;;;6.97;;
17259;SDS011;8746;49.230;9.220;2023-04-19T09:37:16;8.63;;;7.53;;
17259;SDS011;8746;49.230;9.220;2023-04-19T09:39:41;8.37;;;7.47;;
17259;SDS011;8746;49.230;9.220;2023-04-19T09:42:07;8.60;;;7.70;;
17259;SDS011;8746;49.230;9.220;2023-04-19T09:44:32;8.10;;;6.80;;
17259;SDS011;8746;49.230;9.220;2023-04-19T09:46:59;8.43;;;7.63;;
17259;SDS011;8746;49.230;9.220;2023-04-19T09:49:24;8.47;;;7.63;;
17259;SDS011;8746;49.230;9.220;2023-04-19T09:51:54;9.03;;;7.37;;
17259;SDS011;8746;49.230;9.220;2023-04-19T09:54:21;8.80;;;7.67;;
17259;SDS011;8746;49.230;9.220;2023-04-19T09:56:48;10.03;;;8.37;;
17259;SDS011;8746;49.230;9.220;2023-04-19T09:59:14;9.00;;;8.10;;
17259;SDS011;8746;49.230;9.220;2023-04-19T10:04:10;9.47;;;7.70;;
17259;SDS011;8746;49.230;9.220;2023-04-19T10:06:45;11.23;;;8.80;;
17259;SDS011;8746;49.230;9.220;2023-04-19T10:09:16;8.37;;;7.57;;
17259;SDS011;8746;49.230;9.220;2023-04-19T10:11:43;8.70;;;7.80;;
17259;SDS011;8746;49.230;9.220;2023-04-19T10:14:14;10.13;;;8.33;;
17259;SDS011;8746;49.230;9.220;2023-04-19T10:16:41;8.33;;;7.40;;
17259;SDS011;8746;49.230;9.220;2023-04-19T10:19:10;9.03;;;8.13;;
17259;SDS011;8746;49.230;9.220;2023-04-19T10:21:37;10.77;;;8.67;;
17259;SDS011;8746;49.230;9.220;2023-04-19T10:24:05;9.43;;;8.43;;
17259;SDS011;8746;49.230;9.220;2023-04-19T10:26:55;11.67;;;8.93;;
17259;SDS011;8746;49.230;9.220;2023-04-19T10:32:15;10.03;;;8.50;;
17259;SDS011;8746;49.230;9.220;2023-04-19T10:34:41;11.73;;;8.30;;
17259;SDS011;8746;49.230;9.220;2023-04-19T10:37:10;10.27;;;8.10;;
17259;SDS011;8746;49.230;9.220;2023-04-19T10:39:38;10.70;;;8.60;;
17259;SDS011;8746;49.230;9.220;2023-04-19T10:42:05;10.07;;;8.13;;
17259;SDS011;8746;49.230;9.220;2023-04-19T10:44:31;9.53;;;7.60;;
17259;SDS011;8746;49.230;9.220;2023-04-19T10:46:57;9.17;;;7.67;;
17259;SDS011;8746;49.230;9.220;2023-04-19T10:49:23;10.67;;;7.50;;
17259;SDS011;8746;49.230;9.220;2023-04-19T10:51:49;10.57;;;7.50;;
17259;SDS011;8746;49.230;9.220;2023-04-19T10:54:33;9.77;;;7.50;;
17259;SDS011;8746;49.230;9.220;2023-04-19T10:57:05;9.33;;;7.17;;
17259;SDS011;8746;49.230;9.220;2023-04-19T10:59:32;9.17;;;7.10;;
17259;SDS011;8746;49.230;9.220;2023-04-19T11:02:00;12.93;;;7.73;;
17259;SDS011;8746;49.230;9.220;2023-04-19T11:07:04;8.33;;;6.53;;
17259;SDS011;8746;49.230;9.220;2023-04-19T11:09:35;8.10;;;6.77;;
17259;SDS011;8746;49.230;9.220;2023-04-19T11:12:03;7.23;;;6.53;;
17259;SDS011;8746;49.230;9.220;2023-04-19T11:14:30;8.57;;;6.43;;
17259;SDS011;8746;49.230;9.220;2023-04-19T11:16:58;9.47;;;6.20;;
17259;SDS011;8746;49.230;9.220;2023-04-19T11:19:24;7.97;;;6.10;;
17259;SDS011;8746;49.230;9.220;2023-04-19T11:21:49;8.20;;;6.70;;
17259;SDS011;8746;49.230;9.220;2023-04-19T11:24:15;7.30;;;6.33;;
17259;SDS011;8746;49.230;9.220;2023-04-19T11:26:43;7.90;;;6.40;;
17259;SDS011;8746;49.230;9.220;2023-04-19T11:29:09;7.87;;;6.50;;
17259;SDS011;8746;49.230;9.220;2023-04-19T11:31:35;7.03;;;6.10;;
17259;SDS011;8746;49.230;9.220;2023-04-19T11:34:01;7.00;;;6.03;;
17259;SDS011;8746;49.230;9.220;2023-04-19T11:36:27;7.57;;;6.30;;
17259;SDS011;8746;49.230;9.220;2023-04-19T11:38:52;6.60;;;5.93;;
17259;SDS011;8746;49.230;9.220;2023-04-19T11:41:18;6.57;;;4.80;;
17259;SDS011;8746;49.230;9.220;2023-04-19T11:43:43;6.57;;;5.93;;
17259;SDS011;8746;49.230;9.220;2023-04-19T11:46:10;5.90;;;5.40;;
17259;SDS011;8746;49.230;9.220;2023-04-19T11:48:37;7.83;;;5.93;;
17259;SDS011;8746;49.230;9.220;2023-04-19T11:51:13;5.97;;;5.37;;
17259;SDS011;8746;49.230;9.220;2023-04-19T11:53:40;6.30;;;5.70;;
17259;SDS011;8746;49.230;9.220;2023-04-19T11:56:06;6.60;;;5.90;;
17259;SDS011;8746;49.230;9.220;2023-04-19T12:03:30;6.43;;;5.70;;
17259;SDS011;8746;49.230;9.220;2023-04-19T12:05:57;6.00;;;5.40;;
17259;SDS011;8746;49.230;9.220;2023-04-19T12:08:30;6.03;;;5.07;;
17259;SDS011;8746;49.230;9.220;2023-04-19T12:11:00;7.00;;;5.73;;
17259;SDS011;8746;49.230;9.220;2023-04-19T12:13:27;6.03;;;5.50;;
17259;SDS011;8746;49.230;9.220;2023-04-19T12:15:53;6.50;;;5.80;;
17259;SDS011;8746;49.230;9.220;2023-04-19T12:18:18;7.03;;;5.80;;
17259;SDS011;8746;49.230;9.220;2023-04-19T12:20:45;5.60;;;5.10;;
17259;SDS011;8746;49.230;9.220;2023-04-19T12:23:12;6.67;;;5.77;;
17259;SDS011;8746;49.230;9.220;2023-04-19T12:25:39;5.73;;;5.13;;
17259;SDS011;8746;49.230;9.220;2023-04-19T12:28:05;7.47;;;5.40;;
17259;SDS011;8746;49.230;9.220;2023-04-19T12:30:31;5.70;;;5.20;;
17259;SDS011;8746;49.230;9.220;2023-04-19T12:32:57;5.93;;;5.20;;
17259;SDS011;8746;49.230;9.220;2023-04-19T12:35:26;5.63;;;4.80;;
17259;SDS011;8746;49.230;9.220;2023-04-19T12:37:52;5.47;;;4.60;;
17259;SDS011;8746;49.230;9.220;2023-04-19T12:40:19;6.23;;;4.60;;
17259;SDS011;8746;49.230;9.220;2023-04-19T12:42:45;5.30;;;4.80;;
17259;SDS011;8746;49.230;9.220;2023-04-19T12:45:13;5.10;;;4.60;;
17259;SDS011;8746;49.230;9.220;2023-04-19T12:47:39;5.30;;;4.90;;
17259;SDS011;8746;49.230;9.220;2023-04-19T12:50:06;5.17;;;4.67;;
17259;SDS011;8746;49.230;9.220;2023-04-19T12:52:31;4.70;;;4.20;;
17259;SDS011;8746;49.230;9.220;2023-04-19T12:54:57;4.70;;;4.30;;
17259;SDS011;8746;49.230;9.220;2023-04-19T12:57:22;6.57;;;4.20;;
17259;SDS011;8746;49.230;9.220;2023-04-19T12:59:48;5.70;;;4.10;;
17259;SDS011;8746;49.230;9.220;2023-04-19T13:02:13;4.40;;;4.00;;
17259;SDS011;8746;49.230;9.220;2023-04-19T13:04:39;4.32;;;3.92;;
17259;SDS011;8746;49.230;9.220;2023-04-19T13:07:04;10.48;;;4.00;;
17259;SDS011;8746;49.230;9.220;2023-04-19T13:09:30;4.00;;;3.70;;
17259;SDS011;8746;49.230;9.220;2023-04-19T13:11:55;4.10;;;3.70;;
17259;SDS011;8746;49.230;9.220;2023-04-19T13:14:22;4.13;;;3.60;;
17259;SDS011;8746;49.230;9.220;2023-04-19T13:16:47;4.68;;;3.13;;
17259;SDS011;8746;49.230;9.220;2023-04-19T13:19:13;4.63;;;3.47;;
17259;SDS011;8746;49.230;9.220;2023-04-19T13:21:38;2.97;;;2.78;;
17259;SDS011;8746;49.230;9.220;2023-04-19T13:24:04;4.85;;;3.10;;
17259;SDS011;8746;49.230;9.220;2023-04-19T13:26:30;3.47;;;2.90;;
17259;SDS011;8746;49.230;9.220;2023-04-19T13:28:55;4.97;;;2.90;;
17259;SDS011;8746;49.230;9.220;2023-04-19T13:31:20;5.15;;;2.90;;
17259;SDS011;8746;49.230;9.220;2023-04-19T13:33:46;2.50;;;2.30;;
17259;SDS011;8746;49.230;9.220;2023-04-19T13:36:11;2.83;;;2.63;;
17259;SDS011;8746;49.230;9.220;2023-04-19T13:38:37;2.80;;;2.60;;
17259;SDS011;8746;49.230;9.220;2023-04-19T13:41:02;2.88;;;2.67;;
17259;SDS011;8746;49.230;9.220;2023-04-19T13:43:28;3.40;;;3.03;;
17259;SDS011;8746;49.230;9.220;2023-04-19T13:45:54;3.67;;;3.38;;
17259;SDS011;8746;49.230;9.220;2023-04-19T13:48:19;3.30;;;3.00;;
17259;SDS011;8746;49.230;9.220;2023-04-19T13:50:45;3.50;;;3.20;;
17259;SDS011;8746;49.230;9.220;2023-04-19T13:53:10;6.03;;;3.30;;
17259;SDS011;8746;49.230;9.220;2023-04-19T13:55:36;3.60;;;3.30;;
17259;SDS011;8746;49.230;9.220;2023-04-19T13:58:01;4.00;;;3.60;;
17259;SDS011;8746;49.230;9.220;2023-04-19T14:00:26;3.88;;;3.55;;
17259;SDS011;8746;49.230;9.220;2023-04-19T14:02:53;3.97;;;3.60;;
17259;SDS011;8746;49.230;9.220;2023-04-19T14:05:18;4.20;;;3.50;;
17259;SDS011;8746;49.230;9.220;2023-04-19T14:07:44;4.07;;;3.10;;
17259;SDS011;8746;49.230;9.220;2023-04-19T14:10:09;3.60;;;2.88;;
17259;SDS011;8746;49.230;9.220;2023-04-19T14:12:35;3.33;;;3.03;;
17259;SDS011;8746;49.230;9.220;2023-04-19T14:15:00;5.13;;;2.92;;
17259;SDS011;8746;49.230;9.220;2023-04-19T14:17:25;3.53;;;3.22;;
17259;SDS011;8746;49.230;9.220;2023-04-19T14:19:51;4.40;;;3.00;;
17259;SDS011;8746;49.230;9.220;2023-04-19T14:22:16;3.30;;;3.00;;
17259;SDS011;8746;49.230;9.220;2023-04-19T14:24:41;3.75;;;2.80;;
17259;SDS011;8746;49.230;9.220;2023-04-19T14:27:07;2.67;;;2.47;;
17259;SDS011;8746;49.230;9.220;2023-04-19T14:29:32;3.75;;;2.95;;
17259;SDS011;8746;49.230;9.220;2023-04-19T14:31:58;2.97;;;2.67;;
17259;SDS011;8746;49.230;9.220;2023-04-19T14:34:23;3.00;;;2.70;;
17259;SDS011;8746;49.230;9.220;2023-04-19T14:36:49;2.70;;;2.50;;
17259;SDS011;8746;49.230;9.220;2023-04-19T14:39:14;2.83;;;2.40;;
17259;SDS011;8746;49.230;9.220;2023-04-19T14:41:40;2.83;;;2.30;;
17259;SDS011;8746;49.230;9.220;2023-04-19T14:44:05;2.35;;;2.13;;
17259;SDS011;8746;49.230;9.220;2023-04-19T14:46:31;2.33;;;2.13;;
17259;SDS011;8746;49.230;9.220;2023-04-19T14:48:56;1.80;;;1.70;;
17259;SDS011;8746;49.230;9.220;2023-04-19T14:51:27;3.42;;;1.60;;
17259;SDS011;8746;49.230;9.220;2023-04-19T14:53:55;1.90;;;1.70;;
17259;SDS011;8746;49.230;9.220;2023-04-19T14:56:22;2.00;;;1.80;;
17259;SDS011;8746;49.230;9.220;2023-04-19T14:58:47;2.55;;;1.60;;
17259;SDS011;8746;49.230;9.220;2023-04-19T15:01:13;1.90;;;1.80;;
17259;SDS011;8746;49.230;9.220;2023-04-19T15:03:38;1.85;;;1.70;;